Startpagina
METAR-TAF:

METAR-TAF

Vliegvelden :

Juliaca, Peru

breedte: 15-29S, lengte: 070-09W, hoogte: 3826 m

Actueel weer

Dit bericht is 5 uur en het 15 minuten geleden gemaakt, om 01:00 UTC
Wind 4 kt uit het zuidzuidwesten
Temperatuur 6°C
Vochtigheid 39%
Druk 1034 hPa
Zicht 10 km of meer
geen wolken onder 1500 m en geen cumulonimbus

METAR: SPJL 160100Z 20004KT CAVOK 06/M07 Q1034 RMK PP000

Tijdstip: 01:15 (06:15 UTC)

Verwachting

Dit bericht is 7 uur en het 15 minuten geleden gemaakt, om 23:00 UTC
Verwachting geldig van 16 om 00 UTC tot 16 om 24 UTC
Wind 5 kt uit variabele richting
Zicht 10 km of meer
geen wolken onder 1500 m en geen cumulonimbus
Van 16 om 1700 UTC
Wind 7 kt uit het oostzuidoosten
Zicht 10 km of meer
Verspreide wolken op 6000 ft

TAF: SPJL 152300Z 1600/1624 VRB05KT CAVOK TX18/1618Z TNM06/1611Z FM161700 11007KT 9999 SCT060

Waarnemingen en weersverwachtingen van meer dan 4000 vliegvelden (METAR en TAF).

De beschikbare stations zijn de gele en rode punten op de kaart.

Ga met uw muis naar het station om de naam te zien.

Klik dan om waarnemingen en weersverwachtingen te zien.

kaart wijzigen: klik op de groene knoppen met een zwart kruis om in te zoomen, op de groene knop met een streepje om uit te zoomen of op de groene pijlen voor aangrenzende kaarten.


METAR-TAF: